sensor_id;sensor_type;location;lat;lon;timestamp;temperature;humidity
31639;DHT22;18248;51.522;7.020;2023-05-19T00:00:53;12.50;99.90
31639;DHT22;18248;51.522;7.020;2023-05-19T00:03:56;12.40;99.90
31639;DHT22;18248;51.522;7.020;2023-05-19T00:06:58;12.40;99.90
31639;DHT22;18248;51.522;7.020;2023-05-19T00:09:59;12.30;99.90
31639;DHT22;18248;51.522;7.020;2023-05-19T00:12:57;12.30;99.90
31639;DHT22;18248;51.522;7.020;2023-05-19T00:15:56;12.20;99.90
31639;DHT22;18248;51.522;7.020;2023-05-19T00:19:00;12.20;99.90
31639;DHT22;18248;51.522;7.020;2023-05-19T00:21:59;12.10;99.90
31639;DHT22;18248;51.522;7.020;2023-05-19T00:24:57;12.10;99.90
31639;DHT22;18248;51.522;7.020;2023-05-19T00:27:56;12.00;99.90
31639;DHT22;18248;51.522;7.020;2023-05-19T00:30:56;12.00;99.90
31639;DHT22;18248;51.522;7.020;2023-05-19T00:33:55;12.00;99.90
31639;DHT22;18248;51.522;7.020;2023-05-19T00:36:55;12.00;99.90
31639;DHT22;18248;51.522;7.020;2023-05-19T00:39:53;11.90;99.90
31639;DHT22;18248;51.522;7.020;2023-05-19T00:42:52;11.90;99.90
31639;DHT22;18248;51.522;7.020;2023-05-19T00:45:51;11.90;99.90
31639;DHT22;18248;51.522;7.020;2023-05-19T00:48:49;11.80;99.90
31639;DHT22;18248;51.522;7.020;2023-05-19T00:51:48;11.80;99.90
31639;DHT22;18248;51.522;7.020;2023-05-19T00:54:48;11.70;99.90
31639;DHT22;18248;51.522;7.020;2023-05-19T00:57:48;11.70;99.90
31639;DHT22;18248;51.522;7.020;2023-05-19T01:00:47;11.70;99.90
31639;DHT22;18248;51.522;7.020;2023-05-19T01:03:47;11.60;99.90
31639;DHT22;18248;51.522;7.020;2023-05-19T01:06:47;11.60;99.90
31639;DHT22;18248;51.522;7.020;2023-05-19T01:09:46;11.50;99.90
31639;DHT22;18248;51.522;7.020;2023-05-19T01:12:47;11.50;99.90
31639;DHT22;18248;51.522;7.020;2023-05-19T01:23:08;11.40;99.90
31639;DHT22;18248;51.522;7.020;2023-05-19T01:26:15;11.40;99.90
31639;DHT22;18248;51.522;7.020;2023-05-19T01:29:28;11.30;99.90
31639;DHT22;18248;51.522;7.020;2023-05-19T01:32:34;11.30;99.90
31639;DHT22;18248;51.522;7.020;2023-05-19T01:35:38;11.30;99.90
31639;DHT22;18248;51.522;7.020;2023-05-19T01:38:37;11.20;99.90
31639;DHT22;18248;51.522;7.020;2023-05-19T01:41:39;11.20;99.90
31639;DHT22;18248;51.522;7.020;2023-05-19T01:44:38;11.10;99.90
31639;DHT22;18248;51.522;7.020;2023-05-19T01:47:42;11.10;99.90
31639;DHT22;18248;51.522;7.020;2023-05-19T01:50:41;11.10;99.90
31639;DHT22;18248;51.522;7.020;2023-05-19T01:53:40;11.00;99.90
31639;DHT22;18248;51.522;7.020;2023-05-19T01:59:58;11.00;99.90
31639;DHT22;18248;51.522;7.020;2023-05-19T02:06:32;10.90;99.90
31639;DHT22;18248;51.522;7.020;2023-05-19T02:12:52;10.80;99.90
31639;DHT22;18248;51.522;7.020;2023-05-19T02:15:51;10.80;99.90
31639;DHT22;18248;51.522;7.020;2023-05-19T02:18:52;10.80;99.90
31639;DHT22;18248;51.522;7.020;2023-05-19T02:21:51;10.80;99.90
31639;DHT22;18248;51.522;7.020;2023-05-19T02:24:50;10.80;99.90
31639;DHT22;18248;51.522;7.020;2023-05-19T02:27:50;10.80;99.90
31639;DHT22;18248;51.522;7.020;2023-05-19T02:30:49;10.60;99.90
31639;DHT22;18248;51.522;7.020;2023-05-19T02:33:48;10.60;99.90
31639;DHT22;18248;51.522;7.020;2023-05-19T02:36:46;10.50;99.90
31639;DHT22;18248;51.522;7.020;2023-05-19T02:39:48;10.40;99.90
31639;DHT22;18248;51.522;7.020;2023-05-19T02:42:46;10.20;99.90
31639;DHT22;18248;51.522;7.020;2023-05-19T02:45:45;10.10;99.90
31639;DHT22;18248;51.522;7.020;2023-05-19T02:48:43;10.00;99.90
31639;DHT22;18248;51.522;7.020;2023-05-19T02:51:42;10.00;99.90
31639;DHT22;18248;51.522;7.020;2023-05-19T02:54:40;9.90;99.90
31639;DHT22;18248;51.522;7.020;2023-05-19T02:57:39;9.90;99.90
31639;DHT22;18248;51.522;7.020;2023-05-19T03:00:39;9.80;99.90
31639;DHT22;18248;51.522;7.020;2023-05-19T03:03:38;9.80;99.90
31639;DHT22;18248;51.522;7.020;2023-05-19T03:06:36;9.80;99.90
31639;DHT22;18248;51.522;7.020;2023-05-19T03:09:36;9.80;99.90
31639;DHT22;18248;51.522;7.020;2023-05-19T03:12:35;9.70;99.90
31639;DHT22;18248;51.522;7.020;2023-05-19T03:15:33;9.70;99.90
31639;DHT22;18248;51.522;7.020;2023-05-19T03:18:33;9.60;99.90
31639;DHT22;18248;51.522;7.020;2023-05-19T03:21:31;9.60;99.90
31639;DHT22;18248;51.522;7.020;2023-05-19T03:24:31;9.60;99.90
31639;DHT22;18248;51.522;7.020;2023-05-19T03:27:30;9.50;99.90
31639;DHT22;18248;51.522;7.020;2023-05-19T03:30:28;9.50;99.90
31639;DHT22;18248;51.522;7.020;2023-05-19T03:33:28;9.40;99.90
31639;DHT22;18248;51.522;7.020;2023-05-19T03:36:27;9.40;99.90
31639;DHT22;18248;51.522;7.020;2023-05-19T03:39:29;9.40;99.90
31639;DHT22;18248;51.522;7.020;2023-05-19T03:42:28;9.30;99.90
31639;DHT22;18248;51.522;7.020;2023-05-19T03:45:27;9.30;99.90
31639;DHT22;18248;51.522;7.020;2023-05-19T03:48:26;9.30;99.90
31639;DHT22;18248;51.522;7.020;2023-05-19T03:51:25;9.40;99.90
31639;DHT22;18248;51.522;7.020;2023-05-19T03:54:25;9.30;99.90
31639;DHT22;18248;51.522;7.020;2023-05-19T03:57:25;9.30;99.90
31639;DHT22;18248;51.522;7.020;2023-05-19T04:00:24;9.30;99.90
31639;DHT22;18248;51.522;7.020;2023-05-19T04:03:23;9.30;99.90
31639;DHT22;18248;51.522;7.020;2023-05-19T04:06:23;9.30;99.90
31639;DHT22;18248;51.522;7.020;2023-05-19T04:09:21;9.40;99.90
31639;DHT22;18248;51.522;7.020;2023-05-19T04:12:21;9.40;99.90
31639;DHT22;18248;51.522;7.020;2023-05-19T04:15:19;9.50;99.90
31639;DHT22;18248;51.522;7.020;2023-05-19T04:18:18;9.50;99.90
31639;DHT22;18248;51.522;7.020;2023-05-19T04:21:17;9.50;99.90
31639;DHT22;18248;51.522;7.020;2023-05-19T04:24:15;9.60;99.90
31639;DHT22;18248;51.522;7.020;2023-05-19T04:27:14;9.60;99.90
31639;DHT22;18248;51.522;7.020;2023-05-19T04:30:13;9.70;99.90
31639;DHT22;18248;51.522;7.020;2023-05-19T04:33:20;9.80;99.90
31639;DHT22;18248;51.522;7.020;2023-05-19T04:36:18;9.90;99.90
31639;DHT22;18248;51.522;7.020;2023-05-19T04:39:18;10.00;99.90
31639;DHT22;18248;51.522;7.020;2023-05-19T04:42:19;10.10;99.90
31639;DHT22;18248;51.522;7.020;2023-05-19T04:45:18;10.10;99.90
31639;DHT22;18248;51.522;7.020;2023-05-19T04:48:17;10.20;99.90
31639;DHT22;18248;51.522;7.020;2023-05-19T04:51:16;10.30;99.90
31639;DHT22;18248;51.522;7.020;2023-05-19T04:54:15;10.30;99.90
31639;DHT22;18248;51.522;7.020;2023-05-19T04:57:13;10.40;99.90
31639;DHT22;18248;51.522;7.020;2023-05-19T05:00:12;10.40;99.90
31639;DHT22;18248;51.522;7.020;2023-05-19T05:03:11;10.50;99.90
31639;DHT22;18248;51.522;7.020;2023-05-19T05:06:12;10.60;99.90
31639;DHT22;18248;51.522;7.020;2023-05-19T05:09:10;10.60;99.90
31639;DHT22;18248;51.522;7.020;2023-05-19T05:12:10;10.60;99.90
31639;DHT22;18248;51.522;7.020;2023-05-19T05:15:09;10.60;99.90
31639;DHT22;18248;51.522;7.020;2023-05-19T05:18:08;10.60;99.90
31639;DHT22;18248;51.522;7.020;2023-05-19T05:21:07;10.70;99.90
31639;DHT22;18248;51.522;7.020;2023-05-19T05:24:07;10.70;99.90
31639;DHT22;18248;51.522;7.020;2023-05-19T05:27:05;10.80;99.90
31639;DHT22;18248;51.522;7.020;2023-05-19T05:30:06;10.90;99.90
31639;DHT22;18248;51.522;7.020;2023-05-19T05:33:04;11.00;99.90
31639;DHT22;18248;51.522;7.020;2023-05-19T05:36:04;11.10;99.90
31639;DHT22;18248;51.522;7.020;2023-05-19T05:39:04;11.20;99.90
31639;DHT22;18248;51.522;7.020;2023-05-19T05:42:03;11.40;99.90
31639;DHT22;18248;51.522;7.020;2023-05-19T05:45:01;11.50;99.90
31639;DHT22;18248;51.522;7.020;2023-05-19T05:48:00;11.60;99.90
31639;DHT22;18248;51.522;7.020;2023-05-19T05:50:59;11.70;99.90
31639;DHT22;18248;51.522;7.020;2023-05-19T05:53:59;11.80;99.90
31639;DHT22;18248;51.522;7.020;2023-05-19T05:56:58;12.10;99.90
31639;DHT22;18248;51.522;7.020;2023-05-19T05:59:56;13.50;99.90
31639;DHT22;18248;51.522;7.020;2023-05-19T06:02:55;15.60;99.90
31639;DHT22;18248;51.522;7.020;2023-05-19T06:05:55;17.30;99.90
31639;DHT22;18248;51.522;7.020;2023-05-19T06:08:54;18.60;99.90
31639;DHT22;18248;51.522;7.020;2023-05-19T06:11:52;19.70;99.90
31639;DHT22;18248;51.522;7.020;2023-05-19T06:14:51;20.70;99.90
31639;DHT22;18248;51.522;7.020;2023-05-19T06:17:49;21.70;99.90
31639;DHT22;18248;51.522;7.020;2023-05-19T06:20:48;22.80;99.90
31639;DHT22;18248;51.522;7.020;2023-05-19T06:23:46;23.80;97.50
31639;DHT22;18248;51.522;7.020;2023-05-19T06:26:45;24.50;94.10
31639;DHT22;18248;51.522;7.020;2023-05-19T06:29:43;25.20;90.70
31639;DHT22;18248;51.522;7.020;2023-05-19T06:32:42;25.90;83.70
31639;DHT22;18248;51.522;7.020;2023-05-19T06:35:41;26.40;82.00
31639;DHT22;18248;51.522;7.020;2023-05-19T06:38:39;26.90;75.30
31639;DHT22;18248;51.522;7.020;2023-05-19T06:41:38;27.30;73.10
31639;DHT22;18248;51.522;7.020;2023-05-19T06:44:36;27.70;69.00
31639;DHT22;18248;51.522;7.020;2023-05-19T06:47:35;28.10;67.70
31639;DHT22;18248;51.522;7.020;2023-05-19T06:50:35;28.20;63.80
31639;DHT22;18248;51.522;7.020;2023-05-19T06:53:33;28.20;62.90
31639;DHT22;18248;51.522;7.020;2023-05-19T06:56:34;28.30;62.80
31639;DHT22;18248;51.522;7.020;2023-05-19T06:59:33;28.50;60.10
31639;DHT22;18248;51.522;7.020;2023-05-19T07:02:34;28.50;60.30
31639;DHT22;18248;51.522;7.020;2023-05-19T07:05:33;28.70;58.40
31639;DHT22;18248;51.522;7.020;2023-05-19T07:08:35;28.60;58.40
31639;DHT22;18248;51.522;7.020;2023-05-19T07:11:34;28.90;58.20
31639;DHT22;18248;51.522;7.020;2023-05-19T07:14:33;29.30;57.60
31639;DHT22;18248;51.522;7.020;2023-05-19T07:17:33;29.20;56.40
31639;DHT22;18248;51.522;7.020;2023-05-19T07:20:32;29.50;56.80
31639;DHT22;18248;51.522;7.020;2023-05-19T07:23:30;29.90;55.60
31639;DHT22;18248;51.522;7.020;2023-05-19T07:26:29;30.00;55.30
31639;DHT22;18248;51.522;7.020;2023-05-19T07:29:27;30.10;54.50
31639;DHT22;18248;51.522;7.020;2023-05-19T07:32:26;29.70;54.70
31639;DHT22;18248;51.522;7.020;2023-05-19T07:35:25;30.10;54.60
31639;DHT22;18248;51.522;7.020;2023-05-19T07:38:23;30.40;53.70
31639;DHT22;18248;51.522;7.020;2023-05-19T07:41:22;30.30;52.90
31639;DHT22;18248;51.522;7.020;2023-05-19T07:44:21;30.00;52.30
31639;DHT22;18248;51.522;7.020;2023-05-19T07:47:19;29.50;53.60
31639;DHT22;18248;51.522;7.020;2023-05-19T07:50:18;29.50;52.80
31639;DHT22;18248;51.522;7.020;2023-05-19T07:53:17;29.40;52.50
31639;DHT22;18248;51.522;7.020;2023-05-19T07:56:16;29.20;53.50
31639;DHT22;18248;51.522;7.020;2023-05-19T07:59:15;29.50;52.60
31639;DHT22;18248;51.522;7.020;2023-05-19T08:02:13;29.40;52.90
31639;DHT22;18248;51.522;7.020;2023-05-19T08:05:12;29.50;52.90
31639;DHT22;18248;51.522;7.020;2023-05-19T08:08:11;29.70;52.90
31639;DHT22;18248;51.522;7.020;2023-05-19T08:11:10;29.90;52.70
31639;DHT22;18248;51.522;7.020;2023-05-19T08:14:09;29.90;52.30
31639;DHT22;18248;51.522;7.020;2023-05-19T08:17:09;30.10;52.20
31639;DHT22;18248;51.522;7.020;2023-05-19T08:20:10;30.20;51.80
31639;DHT22;18248;51.522;7.020;2023-05-19T08:23:11;30.40;51.10
31639;DHT22;18248;51.522;7.020;2023-05-19T08:26:10;30.30;50.00
31639;DHT22;18248;51.522;7.020;2023-05-19T08:29:09;30.40;51.20
31639;DHT22;18248;51.522;7.020;2023-05-19T08:32:07;30.30;50.80
31639;DHT22;18248;51.522;7.020;2023-05-19T08:35:06;29.90;50.30
31639;DHT22;18248;51.522;7.020;2023-05-19T08:38:05;30.10;50.70
31639;DHT22;18248;51.522;7.020;2023-05-19T08:41:04;30.00;50.00
31639;DHT22;18248;51.522;7.020;2023-05-19T08:44:03;29.50;50.20
31639;DHT22;18248;51.522;7.020;2023-05-19T08:47:03;29.50;49.70
31639;DHT22;18248;51.522;7.020;2023-05-19T08:50:06;29.40;49.70
31639;DHT22;18248;51.522;7.020;2023-05-19T08:56:15;28.00;50.30
31639;DHT22;18248;51.522;7.020;2023-05-19T08:59:16;26.90;52.10
31639;DHT22;18248;51.522;7.020;2023-05-19T09:02:15;26.30;52.80
31639;DHT22;18248;51.522;7.020;2023-05-19T09:05:16;25.60;52.20
31639;DHT22;18248;51.522;7.020;2023-05-19T09:08:14;25.00;54.10
31639;DHT22;18248;51.522;7.020;2023-05-19T09:11:13;24.90;54.10
31639;DHT22;18248;51.522;7.020;2023-05-19T09:14:12;24.40;55.20
31639;DHT22;18248;51.522;7.020;2023-05-19T09:17:10;24.40;55.70
31639;DHT22;18248;51.522;7.020;2023-05-19T09:20:09;24.30;55.70
31639;DHT22;18248;51.522;7.020;2023-05-19T09:23:15;24.30;56.00
31639;DHT22;18248;51.522;7.020;2023-05-19T09:26:14;24.30;55.30
31639;DHT22;18248;51.522;7.020;2023-05-19T09:29:16;24.10;54.60
31639;DHT22;18248;51.522;7.020;2023-05-19T09:32:24;24.10;55.80
31639;DHT22;18248;51.522;7.020;2023-05-19T09:35:23;24.20;56.50
31639;DHT22;18248;51.522;7.020;2023-05-19T09:38:25;24.00;55.20
31639;DHT22;18248;51.522;7.020;2023-05-19T09:41:24;23.90;55.90
31639;DHT22;18248;51.522;7.020;2023-05-19T09:44:25;23.90;54.80
31639;DHT22;18248;51.522;7.020;2023-05-19T09:47:35;23.90;55.70
31639;DHT22;18248;51.522;7.020;2023-05-19T09:50:38;24.20;56.20
31639;DHT22;18248;51.522;7.020;2023-05-19T09:53:38;24.10;55.30
31639;DHT22;18248;51.522;7.020;2023-05-19T09:56:37;24.00;56.30
31639;DHT22;18248;51.522;7.020;2023-05-19T09:59:37;24.10;56.40
31639;DHT22;18248;51.522;7.020;2023-05-19T10:02:40;24.10;56.30
31639;DHT22;18248;51.522;7.020;2023-05-19T10:05:39;23.90;56.20
31639;DHT22;18248;51.522;7.020;2023-05-19T10:08:41;24.00;56.70
31639;DHT22;18248;51.522;7.020;2023-05-19T10:11:40;24.00;56.00
31639;DHT22;18248;51.522;7.020;2023-05-19T10:14:39;24.00;55.40
31639;DHT22;18248;51.522;7.020;2023-05-19T10:17:39;24.00;56.50
31639;DHT22;18248;51.522;7.020;2023-05-19T10:20:39;24.30;55.50
31639;DHT22;18248;51.522;7.020;2023-05-19T10:23:38;24.30;56.00
31639;DHT22;18248;51.522;7.020;2023-05-19T10:26:39;24.30;56.40
31639;DHT22;18248;51.522;7.020;2023-05-19T10:29:43;24.30;56.00
31639;DHT22;18248;51.522;7.020;2023-05-19T10:32:43;24.30;55.80
31639;DHT22;18248;51.522;7.020;2023-05-19T10:36:04;24.30;56.50
31639;DHT22;18248;51.522;7.020;2023-05-19T10:39:19;24.40;57.10
31639;DHT22;18248;51.522;7.020;2023-05-19T10:42:32;24.60;57.10
31639;DHT22;18248;51.522;7.020;2023-05-19T10:45:48;24.80;54.80
31639;DHT22;18248;51.522;7.020;2023-05-19T10:48:48;24.50;54.70
31639;DHT22;18248;51.522;7.020;2023-05-19T10:51:47;24.50;54.50
31639;DHT22;18248;51.522;7.020;2023-05-19T10:54:46;24.00;54.80
31639;DHT22;18248;51.522;7.020;2023-05-19T10:57:53;24.30;55.40
31639;DHT22;18248;51.522;7.020;2023-05-19T11:00:59;24.50;54.90
31639;DHT22;18248;51.522;7.020;2023-05-19T11:04:04;24.40;54.90
31639;DHT22;18248;51.522;7.020;2023-05-19T11:07:03;24.40;55.80
31639;DHT22;18248;51.522;7.020;2023-05-19T11:10:06;24.50;55.70
31639;DHT22;18248;51.522;7.020;2023-05-19T11:13:05;24.70;56.30
31639;DHT22;18248;51.522;7.020;2023-05-19T11:16:07;24.70;54.70
31639;DHT22;18248;51.522;7.020;2023-05-19T11:19:06;24.80;55.70
31639;DHT22;18248;51.522;7.020;2023-05-19T11:22:12;25.00;56.20
31639;DHT22;18248;51.522;7.020;2023-05-19T11:25:10;25.20;55.50
31639;DHT22;18248;51.522;7.020;2023-05-19T11:28:10;25.10;54.50
31639;DHT22;18248;51.522;7.020;2023-05-19T11:31:11;24.90;55.40
31639;DHT22;18248;51.522;7.020;2023-05-19T11:34:10;24.80;54.70
31639;DHT22;18248;51.522;7.020;2023-05-19T11:37:08;24.80;54.40
31639;DHT22;18248;51.522;7.020;2023-05-19T11:40:08;24.90;54.80
31639;DHT22;18248;51.522;7.020;2023-05-19T11:43:08;25.20;55.10
31639;DHT22;18248;51.522;7.020;2023-05-19T11:46:08;25.30;54.50
31639;DHT22;18248;51.522;7.020;2023-05-19T11:49:06;25.40;54.30
31639;DHT22;18248;51.522;7.020;2023-05-19T11:52:06;25.30;55.60
31639;DHT22;18248;51.522;7.020;2023-05-19T11:55:05;25.50;55.40
31639;DHT22;18248;51.522;7.020;2023-05-19T11:58:03;25.50;53.60
31639;DHT22;18248;51.522;7.020;2023-05-19T12:07:16;25.70;54.30
31639;DHT22;18248;51.522;7.020;2023-05-19T12:10:17;25.80;55.40
31639;DHT22;18248;51.522;7.020;2023-05-19T12:13:18;25.80;53.60
31639;DHT22;18248;51.522;7.020;2023-05-19T12:16:19;25.70;53.30
31639;DHT22;18248;51.522;7.020;2023-05-19T12:19:18;25.60;53.60
31639;DHT22;18248;51.522;7.020;2023-05-19T12:22:19;25.60;54.80
31639;DHT22;18248;51.522;7.020;2023-05-19T12:25:19;25.80;54.70
31639;DHT22;18248;51.522;7.020;2023-05-19T12:28:18;26.00;54.80
31639;DHT22;18248;51.522;7.020;2023-05-19T12:31:18;26.20;54.90
31639;DHT22;18248;51.522;7.020;2023-05-19T12:34:17;26.10;54.00
31639;DHT22;18248;51.522;7.020;2023-05-19T12:37:16;26.10;54.80
31639;DHT22;18248;51.522;7.020;2023-05-19T12:40:15;26.20;54.60
31639;DHT22;18248;51.522;7.020;2023-05-19T12:43:22;26.40;52.80
31639;DHT22;18248;51.522;7.020;2023-05-19T12:46:21;26.20;52.40
31639;DHT22;18248;51.522;7.020;2023-05-19T12:49:19;26.10;53.30
31639;DHT22;18248;51.522;7.020;2023-05-19T12:52:19;26.20;53.60
31639;DHT22;18248;51.522;7.020;2023-05-19T12:55:20;25.80;52.20
31639;DHT22;18248;51.522;7.020;2023-05-19T12:58:20;25.70;54.00
31639;DHT22;18248;51.522;7.020;2023-05-19T13:01:21;25.70;53.50
31639;DHT22;18248;51.522;7.020;2023-05-19T13:04:20;25.60;54.20
31639;DHT22;18248;51.522;7.020;2023-05-19T13:07:19;25.70;53.40
31639;DHT22;18248;51.522;7.020;2023-05-19T13:10:19;25.80;53.90
31639;DHT22;18248;51.522;7.020;2023-05-19T13:13:18;26.10;54.10
31639;DHT22;18248;51.522;7.020;2023-05-19T13:16:16;26.20;53.70
31639;DHT22;18248;51.522;7.020;2023-05-19T13:19:18;26.30;53.30
31639;DHT22;18248;51.522;7.020;2023-05-19T13:22:18;26.40;54.10
31639;DHT22;18248;51.522;7.020;2023-05-19T13:25:16;26.40;53.80
31639;DHT22;18248;51.522;7.020;2023-05-19T13:28:15;26.40;52.90
31639;DHT22;18248;51.522;7.020;2023-05-19T13:31:14;26.30;51.70
31639;DHT22;18248;51.522;7.020;2023-05-19T13:34:12;25.90;52.10
31639;DHT22;18248;51.522;7.020;2023-05-19T13:37:11;26.10;53.20
31639;DHT22;18248;51.522;7.020;2023-05-19T13:40:10;26.30;53.20
31639;DHT22;18248;51.522;7.020;2023-05-19T13:43:09;26.10;53.50
31639;DHT22;18248;51.522;7.020;2023-05-19T13:46:07;26.10;53.50
31639;DHT22;18248;51.522;7.020;2023-05-19T13:49:06;26.30;54.00
31639;DHT22;18248;51.522;7.020;2023-05-19T13:52:06;26.50;54.10
31639;DHT22;18248;51.522;7.020;2023-05-19T13:55:05;26.40;53.80
31639;DHT22;18248;51.522;7.020;2023-05-19T13:58:04;26.50;53.70
31639;DHT22;18248;51.522;7.020;2023-05-19T14:01:03;26.50;52.30
31639;DHT22;18248;51.522;7.020;2023-05-19T14:04:02;26.20;52.30
31639;DHT22;18248;51.522;7.020;2023-05-19T14:07:00;26.20;53.50
31639;DHT22;18248;51.522;7.020;2023-05-19T14:09:59;26.20;53.00
31639;DHT22;18248;51.522;7.020;2023-05-19T14:12:57;26.00;52.20
31639;DHT22;18248;51.522;7.020;2023-05-19T14:15:57;26.10;53.20
31639;DHT22;18248;51.522;7.020;2023-05-19T14:18:55;26.30;54.10
31639;DHT22;18248;51.522;7.020;2023-05-19T14:21:55;26.40;53.60
31639;DHT22;18248;51.522;7.020;2023-05-19T14:24:54;26.20;52.00
31639;DHT22;18248;51.522;7.020;2023-05-19T14:27:52;26.20;53.80
31639;DHT22;18248;51.522;7.020;2023-05-19T14:30:51;26.30;54.10
31639;DHT22;18248;51.522;7.020;2023-05-19T14:33:50;26.10;53.50
31639;DHT22;18248;51.522;7.020;2023-05-19T14:36:49;26.10;54.10
31639;DHT22;18248;51.522;7.020;2023-05-19T14:39:47;26.40;54.70
31639;DHT22;18248;51.522;7.020;2023-05-19T14:42:46;26.60;53.40
31639;DHT22;18248;51.522;7.020;2023-05-19T14:45:44;26.70;52.50
31639;DHT22;18248;51.522;7.020;2023-05-19T14:48:43;26.50;54.00
31639;DHT22;18248;51.522;7.020;2023-05-19T14:51:41;26.60;53.90
31639;DHT22;18248;51.522;7.020;2023-05-19T14:54:40;26.80;53.10
31639;DHT22;18248;51.522;7.020;2023-05-19T14:57:39;26.70;53.10
31639;DHT22;18248;51.522;7.020;2023-05-19T15:00:38;26.30;53.60
31639;DHT22;18248;51.522;7.020;2023-05-19T15:03:37;26.20;53.30
31639;DHT22;18248;51.522;7.020;2023-05-19T15:06:35;26.30;53.00
31639;DHT22;18248;51.522;7.020;2023-05-19T15:09:34;26.30;53.50
31639;DHT22;18248;51.522;7.020;2023-05-19T15:12:32;26.60;53.40
31639;DHT22;18248;51.522;7.020;2023-05-19T15:15:31;26.60;52.80
31639;DHT22;18248;51.522;7.020;2023-05-19T15:18:29;26.40;53.20
31639;DHT22;18248;51.522;7.020;2023-05-19T15:21:28;26.30;53.60
31639;DHT22;18248;51.522;7.020;2023-05-19T15:24:26;26.50;54.00
31639;DHT22;18248;51.522;7.020;2023-05-19T15:27:25;26.60;52.90
31639;DHT22;18248;51.522;7.020;2023-05-19T15:30:24;26.50;52.90
31639;DHT22;18248;51.522;7.020;2023-05-19T15:33:23;26.60;53.30
31639;DHT22;18248;51.522;7.020;2023-05-19T15:36:22;26.60;53.60
31639;DHT22;18248;51.522;7.020;2023-05-19T15:39:21;26.40;53.10
31639;DHT22;18248;51.522;7.020;2023-05-19T15:42:21;26.40;53.50
31639;DHT22;18248;51.522;7.020;2023-05-19T15:45:19;26.30;53.40
31639;DHT22;18248;51.522;7.020;2023-05-19T15:48:19;26.20;53.20
31639;DHT22;18248;51.522;7.020;2023-05-19T15:51:18;26.00;53.60
31639;DHT22;18248;51.522;7.020;2023-05-19T15:54:16;25.80;53.90
31639;DHT22;18248;51.522;7.020;2023-05-19T15:57:15;25.70;53.40
31639;DHT22;18248;51.522;7.020;2023-05-19T16:00:13;25.80;54.20
31639;DHT22;18248;51.522;7.020;2023-05-19T16:03:14;25.90;53.60
31639;DHT22;18248;51.522;7.020;2023-05-19T16:06:12;25.60;52.60
31639;DHT22;18248;51.522;7.020;2023-05-19T16:09:12;25.50;53.50
31639;DHT22;18248;51.522;7.020;2023-05-19T16:12:11;25.60;54.20
31639;DHT22;18248;51.522;7.020;2023-05-19T16:15:09;25.60;53.50
31639;DHT22;18248;51.522;7.020;2023-05-19T16:18:08;25.60;54.00
31639;DHT22;18248;51.522;7.020;2023-05-19T16:21:06;25.60;54.10
31639;DHT22;18248;51.522;7.020;2023-05-19T16:24:05;25.50;53.80
31639;DHT22;18248;51.522;7.020;2023-05-19T16:27:04;25.40;53.90
31639;DHT22;18248;51.522;7.020;2023-05-19T16:30:04;25.20;52.90
31639;DHT22;18248;51.522;7.020;2023-05-19T16:33:03;25.20;53.50
31639;DHT22;18248;51.522;7.020;2023-05-19T16:36:02;25.20;53.90
31639;DHT22;18248;51.522;7.020;2023-05-19T16:39:02;25.10;53.80
31639;DHT22;18248;51.522;7.020;2023-05-19T16:42:01;25.10;54.90
31639;DHT22;18248;51.522;7.020;2023-05-19T16:44:59;25.20;53.60
31639;DHT22;18248;51.522;7.020;2023-05-19T16:47:58;25.10;54.30
31639;DHT22;18248;51.522;7.020;2023-05-19T16:50:56;25.00;54.10
31639;DHT22;18248;51.522;7.020;2023-05-19T16:53:55;24.80;53.80
31639;DHT22;18248;51.522;7.020;2023-05-19T16:56:53;24.60;54.50
31639;DHT22;18248;51.522;7.020;2023-05-19T16:59:52;24.50;54.70
31639;DHT22;18248;51.522;7.020;2023-05-19T17:02:50;24.40;54.20
31639;DHT22;18248;51.522;7.020;2023-05-19T17:05:49;24.20;54.30
31639;DHT22;18248;51.522;7.020;2023-05-19T17:08:47;24.00;54.50
31639;DHT22;18248;51.522;7.020;2023-05-19T17:11:47;23.90;54.50
31639;DHT22;18248;51.522;7.020;2023-05-19T17:14:46;23.90;54.90
31639;DHT22;18248;51.522;7.020;2023-05-19T17:17:44;23.80;55.70
31639;DHT22;18248;51.522;7.020;2023-05-19T17:20:43;23.80;55.50
31639;DHT22;18248;51.522;7.020;2023-05-19T17:23:41;23.80;55.40
31639;DHT22;18248;51.522;7.020;2023-05-19T17:26:41;23.70;55.30
31639;DHT22;18248;51.522;7.020;2023-05-19T17:29:40;23.60;55.50
31639;DHT22;18248;51.522;7.020;2023-05-19T17:32:38;23.50;56.60
31639;DHT22;18248;51.522;7.020;2023-05-19T17:35:37;23.50;56.80
31639;DHT22;18248;51.522;7.020;2023-05-19T17:38:35;23.50;56.60
31639;DHT22;18248;51.522;7.020;2023-05-19T17:41:37;23.30;56.70
31639;DHT22;18248;51.522;7.020;2023-05-19T17:44:35;23.20;56.50
31639;DHT22;18248;51.522;7.020;2023-05-19T17:47:34;23.10;56.90
31639;DHT22;18248;51.522;7.020;2023-05-19T17:50:33;23.10;56.80
31639;DHT22;18248;51.522;7.020;2023-05-19T17:53:33;23.10;56.80
31639;DHT22;18248;51.522;7.020;2023-05-19T17:56:32;23.10;57.20
31639;DHT22;18248;51.522;7.020;2023-05-19T17:59:32;23.00;57.10
31639;DHT22;18248;51.522;7.020;2023-05-19T18:02:31;22.80;57.30
31639;DHT22;18248;51.522;7.020;2023-05-19T18:05:30;22.70;57.30
31639;DHT22;18248;51.522;7.020;2023-05-19T18:08:30;22.70;57.50
31639;DHT22;18248;51.522;7.020;2023-05-19T18:11:31;22.60;57.70
31639;DHT22;18248;51.522;7.020;2023-05-19T18:14:29;22.40;57.60
31639;DHT22;18248;51.522;7.020;2023-05-19T18:17:28;22.30;57.40
31639;DHT22;18248;51.522;7.020;2023-05-19T18:20:26;22.20;57.80
31639;DHT22;18248;51.522;7.020;2023-05-19T18:23:26;22.10;58.30
31639;DHT22;18248;51.522;7.020;2023-05-19T18:26:24;22.00;58.40
31639;DHT22;18248;51.522;7.020;2023-05-19T18:29:23;22.00;58.20
31639;DHT22;18248;51.522;7.020;2023-05-19T18:32:21;21.90;58.50
31639;DHT22;18248;51.522;7.020;2023-05-19T18:35:20;21.70;58.50
31639;DHT22;18248;51.522;7.020;2023-05-19T18:38:19;21.60;58.80
31639;DHT22;18248;51.522;7.020;2023-05-19T18:41:17;21.60;59.30
31639;DHT22;18248;51.522;7.020;2023-05-19T18:44:16;21.50;59.20
31639;DHT22;18248;51.522;7.020;2023-05-19T18:47:16;21.40;59.40
31639;DHT22;18248;51.522;7.020;2023-05-19T18:50:16;21.30;59.40
31639;DHT22;18248;51.522;7.020;2023-05-19T18:53:15;21.20;59.70
31639;DHT22;18248;51.522;7.020;2023-05-19T18:56:13;21.10;59.70
31639;DHT22;18248;51.522;7.020;2023-05-19T18:59:19;21.00;59.80
31639;DHT22;18248;51.522;7.020;2023-05-19T19:02:18;21.00;60.30
31639;DHT22;18248;51.522;7.020;2023-05-19T19:05:16;20.90;60.50
31639;DHT22;18248;51.522;7.020;2023-05-19T19:08:15;20.80;60.20
31639;DHT22;18248;51.522;7.020;2023-05-19T19:11:14;20.70;60.90
31639;DHT22;18248;51.522;7.020;2023-05-19T19:14:13;20.60;60.50
31639;DHT22;18248;51.522;7.020;2023-05-19T19:17:11;20.50;60.70
31639;DHT22;18248;51.522;7.020;2023-05-19T19:20:10;20.40;60.90
31639;DHT22;18248;51.522;7.020;2023-05-19T19:23:09;20.30;61.10